sensor_id;sensor_type;location;lat;lon;timestamp;P1;durP1;ratioP1;P2;durP2;ratioP2
69835;SDS011;57132;51.972;4.450;2023-03-23T00:02:30;10.48;;;4.38;;
69835;SDS011;57132;51.972;4.450;2023-03-23T00:05:01;10.77;;;4.70;;
69835;SDS011;57132;51.972;4.450;2023-03-23T00:07:28;6.82;;;3.95;;
69835;SDS011;57132;51.972;4.450;2023-03-23T00:09:54;11.55;;;4.50;;
69835;SDS011;57132;51.972;4.450;2023-03-23T00:12:25;11.82;;;4.90;;
69835;SDS011;57132;51.972;4.450;2023-03-23T00:15:06;18.17;;;4.82;;
69835;SDS011;57132;51.972;4.450;2023-03-23T00:17:38;10.30;;;4.00;;
69835;SDS011;57132;51.972;4.450;2023-03-23T00:20:05;9.48;;;4.18;;
69835;SDS011;57132;51.972;4.450;2023-03-23T00:22:31;10.55;;;3.53;;
69835;SDS011;57132;51.972;4.450;2023-03-23T00:25:02;15.45;;;4.45;;
69835;SDS011;57132;51.972;4.450;2023-03-23T00:27:30;8.23;;;3.40;;
69835;SDS011;57132;51.972;4.450;2023-03-23T00:29:56;8.82;;;3.95;;
69835;SDS011;57132;51.972;4.450;2023-03-23T00:32:22;7.28;;;3.75;;
69835;SDS011;57132;51.972;4.450;2023-03-23T00:34:52;10.50;;;4.05;;
69835;SDS011;57132;51.972;4.450;2023-03-23T00:37:20;8.25;;;3.28;;
69835;SDS011;57132;51.972;4.450;2023-03-23T00:39:46;9.20;;;3.97;;
69835;SDS011;57132;51.972;4.450;2023-03-23T00:42:12;10.45;;;3.97;;
69835;SDS011;57132;51.972;4.450;2023-03-23T00:44:39;7.45;;;3.85;;
69835;SDS011;57132;51.972;4.450;2023-03-23T00:47:05;14.45;;;4.95;;
69835;SDS011;57132;51.972;4.450;2023-03-23T00:49:33;11.82;;;4.03;;
69835;SDS011;57132;51.972;4.450;2023-03-23T00:52:02;7.78;;;4.07;;
69835;SDS011;57132;51.972;4.450;2023-03-23T00:54:28;9.43;;;4.20;;
69835;SDS011;57132;51.972;4.450;2023-03-23T00:56:54;6.72;;;3.80;;
69835;SDS011;57132;51.972;4.450;2023-03-23T00:59:20;8.93;;;4.13;;
69835;SDS011;57132;51.972;4.450;2023-03-23T01:01:45;7.53;;;3.67;;
69835;SDS011;57132;51.972;4.450;2023-03-23T01:04:11;9.15;;;4.10;;
69835;SDS011;57132;51.972;4.450;2023-03-23T01:06:38;6.18;;;3.42;;
69835;SDS011;57132;51.972;4.450;2023-03-23T01:09:06;12.40;;;4.15;;
69835;SDS011;57132;51.972;4.450;2023-03-23T01:11:32;9.55;;;3.70;;
69835;SDS011;57132;51.972;4.450;2023-03-23T01:13:58;12.60;;;3.65;;
69835;SDS011;57132;51.972;4.450;2023-03-23T01:16:24;7.88;;;3.40;;
69835;SDS011;57132;51.972;4.450;2023-03-23T01:18:49;7.03;;;3.30;;
69835;SDS011;57132;51.972;4.450;2023-03-23T01:21:16;6.75;;;3.15;;
69835;SDS011;57132;51.972;4.450;2023-03-23T01:23:43;10.00;;;3.58;;
69835;SDS011;57132;51.972;4.450;2023-03-23T01:26:19;6.93;;;3.53;;
69835;SDS011;57132;51.972;4.450;2023-03-23T01:28:47;7.15;;;3.22;;
69835;SDS011;57132;51.972;4.450;2023-03-23T01:31:16;8.32;;;3.50;;
69835;SDS011;57132;51.972;4.450;2023-03-23T01:33:43;8.63;;;3.60;;
69835;SDS011;57132;51.972;4.450;2023-03-23T01:36:10;7.28;;;3.22;;
69835;SDS011;57132;51.972;4.450;2023-03-23T01:38:37;7.82;;;3.00;;
69835;SDS011;57132;51.972;4.450;2023-03-23T01:41:03;7.63;;;3.05;;
69835;SDS011;57132;51.972;4.450;2023-03-23T01:43:30;7.35;;;3.20;;
69835;SDS011;57132;51.972;4.450;2023-03-23T01:45:56;7.55;;;3.13;;
69835;SDS011;57132;51.972;4.450;2023-03-23T01:48:29;6.00;;;3.05;;
69835;SDS011;57132;51.972;4.450;2023-03-23T01:53:34;8.23;;;3.53;;
69835;SDS011;57132;51.972;4.450;2023-03-23T01:56:03;6.43;;;3.30;;
69835;SDS011;57132;51.972;4.450;2023-03-23T01:58:31;5.47;;;3.17;;
69835;SDS011;57132;51.972;4.450;2023-03-23T02:00:58;4.57;;;3.17;;
69835;SDS011;57132;51.972;4.450;2023-03-23T02:03:32;4.88;;;3.10;;
69835;SDS011;57132;51.972;4.450;2023-03-23T02:06:01;8.25;;;3.42;;
69835;SDS011;57132;51.972;4.450;2023-03-23T02:08:27;6.28;;;3.05;;
69835;SDS011;57132;51.972;4.450;2023-03-23T02:10:55;8.38;;;2.97;;
69835;SDS011;57132;51.972;4.450;2023-03-23T02:13:21;6.20;;;3.05;;
69835;SDS011;57132;51.972;4.450;2023-03-23T02:15:48;10.45;;;3.25;;
69835;SDS011;57132;51.972;4.450;2023-03-23T02:21:27;8.23;;;3.33;;
69835;SDS011;57132;51.972;4.450;2023-03-23T02:26:59;8.93;;;3.30;;
69835;SDS011;57132;51.972;4.450;2023-03-23T02:29:58;8.32;;;2.95;;
69835;SDS011;57132;51.972;4.450;2023-03-23T02:35:23;7.60;;;3.22;;
69835;SDS011;57132;51.972;4.450;2023-03-23T02:38:00;11.80;;;3.55;;
69835;SDS011;57132;51.972;4.450;2023-03-23T02:40:38;8.18;;;2.90;;
69835;SDS011;57132;51.972;4.450;2023-03-23T02:43:07;7.75;;;2.80;;
69835;SDS011;57132;51.972;4.450;2023-03-23T02:45:36;5.03;;;2.80;;
69835;SDS011;57132;51.972;4.450;2023-03-23T02:48:03;7.22;;;3.13;;
69835;SDS011;57132;51.972;4.450;2023-03-23T02:50:31;5.43;;;2.75;;
69835;SDS011;57132;51.972;4.450;2023-03-23T02:52:58;9.48;;;2.95;;
69835;SDS011;57132;51.972;4.450;2023-03-23T02:55:25;8.35;;;2.92;;
69835;SDS011;57132;51.972;4.450;2023-03-23T02:57:53;5.00;;;2.53;;
69835;SDS011;57132;51.972;4.450;2023-03-23T03:00:22;9.15;;;3.03;;
69835;SDS011;57132;51.972;4.450;2023-03-23T03:02:49;6.18;;;2.97;;
69835;SDS011;57132;51.972;4.450;2023-03-23T03:13:14;7.60;;;2.95;;
69835;SDS011;57132;51.972;4.450;2023-03-23T03:18:34;11.27;;;3.83;;
69835;SDS011;57132;51.972;4.450;2023-03-23T03:21:13;13.82;;;4.28;;
69835;SDS011;57132;51.972;4.450;2023-03-23T03:23:42;6.85;;;3.70;;
69835;SDS011;57132;51.972;4.450;2023-03-23T03:26:11;7.70;;;3.05;;
69835;SDS011;57132;51.972;4.450;2023-03-23T03:28:41;6.22;;;3.20;;
69835;SDS011;57132;51.972;4.450;2023-03-23T03:31:12;12.70;;;3.90;;
69835;SDS011;57132;51.972;4.450;2023-03-23T03:33:40;7.70;;;2.75;;
69835;SDS011;57132;51.972;4.450;2023-03-23T03:36:06;10.10;;;3.30;;
69835;SDS011;57132;51.972;4.450;2023-03-23T03:38:43;8.98;;;3.88;;
69835;SDS011;57132;51.972;4.450;2023-03-23T03:41:10;11.70;;;3.53;;
69835;SDS011;57132;51.972;4.450;2023-03-23T03:43:36;13.80;;;3.53;;
69835;SDS011;57132;51.972;4.450;2023-03-23T03:46:01;14.68;;;4.30;;
69835;SDS011;57132;51.972;4.450;2023-03-23T03:48:27;12.82;;;3.47;;
69835;SDS011;57132;51.972;4.450;2023-03-23T03:50:53;7.03;;;2.97;;
69835;SDS011;57132;51.972;4.450;2023-03-23T03:53:21;11.50;;;4.55;;
69835;SDS011;57132;51.972;4.450;2023-03-23T03:55:47;10.77;;;3.08;;
69835;SDS011;57132;51.972;4.450;2023-03-23T03:58:14;12.90;;;3.33;;
69835;SDS011;57132;51.972;4.450;2023-03-23T04:00:40;16.40;;;3.53;;
69835;SDS011;57132;51.972;4.450;2023-03-23T04:03:06;14.40;;;3.47;;
69835;SDS011;57132;51.972;4.450;2023-03-23T04:05:32;10.73;;;3.03;;
69835;SDS011;57132;51.972;4.450;2023-03-23T04:07:58;14.13;;;2.83;;
69835;SDS011;57132;51.972;4.450;2023-03-23T04:10:26;16.92;;;3.42;;
69835;SDS011;57132;51.972;4.450;2023-03-23T04:12:54;6.90;;;2.92;;
69835;SDS011;57132;51.972;4.450;2023-03-23T04:15:20;16.05;;;3.10;;
69835;SDS011;57132;51.972;4.450;2023-03-23T04:17:46;12.43;;;3.03;;
69835;SDS011;57132;51.972;4.450;2023-03-23T04:20:12;13.10;;;3.15;;
69835;SDS011;57132;51.972;4.450;2023-03-23T04:22:42;11.77;;;3.30;;
69835;SDS011;57132;51.972;4.450;2023-03-23T04:25:13;10.27;;;3.20;;
69835;SDS011;57132;51.972;4.450;2023-03-23T04:27:40;7.82;;;2.78;;
69835;SDS011;57132;51.972;4.450;2023-03-23T04:30:08;14.32;;;3.20;;
69835;SDS011;57132;51.972;4.450;2023-03-23T04:32:35;13.52;;;3.05;;
69835;SDS011;57132;51.972;4.450;2023-03-23T04:35:00;12.00;;;3.28;;
69835;SDS011;57132;51.972;4.450;2023-03-23T04:37:26;6.28;;;2.70;;
69835;SDS011;57132;51.972;4.450;2023-03-23T04:39:57;12.73;;;3.72;;
69835;SDS011;57132;51.972;4.450;2023-03-23T04:42:29;18.13;;;3.30;;
69835;SDS011;57132;51.972;4.450;2023-03-23T04:44:56;14.48;;;3.10;;
69835;SDS011;57132;51.972;4.450;2023-03-23T04:47:23;10.20;;;3.75;;
69835;SDS011;57132;51.972;4.450;2023-03-23T04:49:50;10.73;;;3.05;;
69835;SDS011;57132;51.972;4.450;2023-03-23T04:52:16;11.43;;;3.58;;
69835;SDS011;57132;51.972;4.450;2023-03-23T04:54:42;13.90;;;3.50;;
69835;SDS011;57132;51.972;4.450;2023-03-23T04:57:08;9.18;;;3.15;;
69835;SDS011;57132;51.972;4.450;2023-03-23T04:59:33;12.82;;;3.63;;
69835;SDS011;57132;51.972;4.450;2023-03-23T05:01:59;15.45;;;3.92;;
69835;SDS011;57132;51.972;4.450;2023-03-23T05:04:24;18.50;;;3.67;;
69835;SDS011;57132;51.972;4.450;2023-03-23T05:06:50;17.83;;;3.88;;
69835;SDS011;57132;51.972;4.450;2023-03-23T05:09:17;16.15;;;4.30;;
69835;SDS011;57132;51.972;4.450;2023-03-23T05:11:43;13.80;;;3.63;;
69835;SDS011;57132;51.972;4.450;2023-03-23T05:14:08;20.02;;;3.88;;
69835;SDS011;57132;51.972;4.450;2023-03-23T05:16:33;16.42;;;3.50;;
69835;SDS011;57132;51.972;4.450;2023-03-23T05:19:01;24.85;;;4.05;;
69835;SDS011;57132;51.972;4.450;2023-03-23T05:21:27;19.25;;;4.68;;
69835;SDS011;57132;51.972;4.450;2023-03-23T05:23:53;17.02;;;4.63;;
69835;SDS011;57132;51.972;4.450;2023-03-23T05:26:22;13.65;;;4.13;;
69835;SDS011;57132;51.972;4.450;2023-03-23T05:31:20;15.40;;;3.90;;
69835;SDS011;57132;51.972;4.450;2023-03-23T05:33:46;16.58;;;3.78;;
69835;SDS011;57132;51.972;4.450;2023-03-23T05:36:12;19.42;;;3.47;;
69835;SDS011;57132;51.972;4.450;2023-03-23T05:38:41;15.40;;;3.38;;
69835;SDS011;57132;51.972;4.450;2023-03-23T05:41:13;17.52;;;3.60;;
69835;SDS011;57132;51.972;4.450;2023-03-23T05:43:39;14.05;;;3.65;;
69835;SDS011;57132;51.972;4.450;2023-03-23T05:46:05;19.85;;;4.82;;
69835;SDS011;57132;51.972;4.450;2023-03-23T05:48:31;23.83;;;5.53;;
69835;SDS011;57132;51.972;4.450;2023-03-23T05:50:57;14.70;;;4.85;;
69835;SDS011;57132;51.972;4.450;2023-03-23T05:53:23;25.15;;;4.63;;
69835;SDS011;57132;51.972;4.450;2023-03-23T05:55:49;19.30;;;4.57;;
69835;SDS011;57132;51.972;4.450;2023-03-23T05:58:14;20.35;;;5.63;;
69835;SDS011;57132;51.972;4.450;2023-03-23T06:00:40;18.13;;;5.40;;
69835;SDS011;57132;51.972;4.450;2023-03-23T06:03:06;14.80;;;4.95;;
69835;SDS011;57132;51.972;4.450;2023-03-23T06:05:32;15.23;;;4.40;;
69835;SDS011;57132;51.972;4.450;2023-03-23T06:07:57;18.50;;;5.18;;
69835;SDS011;57132;51.972;4.450;2023-03-23T06:10:24;13.88;;;4.13;;
69835;SDS011;57132;51.972;4.450;2023-03-23T06:12:50;27.63;;;5.65;;
69835;SDS011;57132;51.972;4.450;2023-03-23T06:15:16;16.38;;;4.85;;
69835;SDS011;57132;51.972;4.450;2023-03-23T06:17:42;23.27;;;4.78;;
69835;SDS011;57132;51.972;4.450;2023-03-23T06:20:08;21.80;;;4.75;;
69835;SDS011;57132;51.972;4.450;2023-03-23T06:22:38;16.85;;;5.72;;
69835;SDS011;57132;51.972;4.450;2023-03-23T06:25:08;15.65;;;5.07;;
69835;SDS011;57132;51.972;4.450;2023-03-23T06:27:38;21.23;;;4.60;;
69835;SDS011;57132;51.972;4.450;2023-03-23T06:30:04;17.55;;;4.97;;
69835;SDS011;57132;51.972;4.450;2023-03-23T06:32:30;21.20;;;5.32;;
69835;SDS011;57132;51.972;4.450;2023-03-23T06:34:57;24.45;;;5.38;;
69835;SDS011;57132;51.972;4.450;2023-03-23T06:37:23;20.55;;;4.50;;
69835;SDS011;57132;51.972;4.450;2023-03-23T06:39:49;23.40;;;5.28;;
69835;SDS011;57132;51.972;4.450;2023-03-23T06:42:16;20.10;;;4.38;;
69835;SDS011;57132;51.972;4.450;2023-03-23T06:44:43;23.00;;;5.38;;
69835;SDS011;57132;51.972;4.450;2023-03-23T06:47:08;15.80;;;3.42;;
69835;SDS011;57132;51.972;4.450;2023-03-23T06:49:34;17.90;;;4.35;;
69835;SDS011;57132;51.972;4.450;2023-03-23T06:51:59;16.50;;;3.35;;
69835;SDS011;57132;51.972;4.450;2023-03-23T06:54:26;24.80;;;4.25;;
69835;SDS011;57132;51.972;4.450;2023-03-23T06:56:52;15.38;;;3.50;;
69835;SDS011;57132;51.972;4.450;2023-03-23T06:59:17;19.27;;;3.38;;
69835;SDS011;57132;51.972;4.450;2023-03-23T07:01:44;15.88;;;3.22;;
69835;SDS011;57132;51.972;4.450;2023-03-23T07:04:11;18.83;;;3.83;;
69835;SDS011;57132;51.972;4.450;2023-03-23T07:06:37;18.90;;;4.75;;
69835;SDS011;57132;51.972;4.450;2023-03-23T07:09:02;15.75;;;2.97;;
69835;SDS011;57132;51.972;4.450;2023-03-23T07:11:29;18.05;;;3.40;;
69835;SDS011;57132;51.972;4.450;2023-03-23T07:13:54;21.02;;;3.15;;
69835;SDS011;57132;51.972;4.450;2023-03-23T07:16:20;20.00;;;4.32;;
69835;SDS011;57132;51.972;4.450;2023-03-23T07:18:46;19.00;;;3.83;;
69835;SDS011;57132;51.972;4.450;2023-03-23T07:21:11;15.75;;;3.70;;
69835;SDS011;57132;51.972;4.450;2023-03-23T07:23:37;16.88;;;4.03;;
69835;SDS011;57132;51.972;4.450;2023-03-23T07:26:02;15.40;;;3.35;;
69835;SDS011;57132;51.972;4.450;2023-03-23T07:28:28;10.57;;;3.30;;
69835;SDS011;57132;51.972;4.450;2023-03-23T07:30:55;16.48;;;3.45;;
69835;SDS011;57132;51.972;4.450;2023-03-23T07:33:20;16.60;;;3.05;;
69835;SDS011;57132;51.972;4.450;2023-03-23T07:35:46;15.85;;;2.72;;
69835;SDS011;57132;51.972;4.450;2023-03-23T07:38:12;15.05;;;3.28;;
69835;SDS011;57132;51.972;4.450;2023-03-23T07:40:39;19.33;;;3.53;;
69835;SDS011;57132;51.972;4.450;2023-03-23T07:43:05;14.38;;;3.78;;
69835;SDS011;57132;51.972;4.450;2023-03-23T07:45:31;17.88;;;3.72;;
69835;SDS011;57132;51.972;4.450;2023-03-23T07:47:56;21.92;;;3.85;;
69835;SDS011;57132;51.972;4.450;2023-03-23T07:50:22;19.58;;;3.22;;
69835;SDS011;57132;51.972;4.450;2023-03-23T07:52:49;12.02;;;3.47;;
69835;SDS011;57132;51.972;4.450;2023-03-23T07:55:17;19.63;;;3.72;;
69835;SDS011;57132;51.972;4.450;2023-03-23T07:57:43;11.73;;;3.10;;
69835;SDS011;57132;51.972;4.450;2023-03-23T08:00:10;16.58;;;3.22;;
69835;SDS011;57132;51.972;4.450;2023-03-23T08:02:47;14.50;;;4.00;;
69835;SDS011;57132;51.972;4.450;2023-03-23T08:05:15;13.40;;;4.57;;
69835;SDS011;57132;51.972;4.450;2023-03-23T08:07:41;13.00;;;4.32;;
69835;SDS011;57132;51.972;4.450;2023-03-23T08:10:08;21.77;;;5.68;;
69835;SDS011;57132;51.972;4.450;2023-03-23T08:12:39;16.83;;;4.57;;
69835;SDS011;57132;51.972;4.450;2023-03-23T08:15:06;23.30;;;5.70;;
69835;SDS011;57132;51.972;4.450;2023-03-23T08:17:32;11.55;;;4.45;;
69835;SDS011;57132;51.972;4.450;2023-03-23T08:19:59;16.73;;;4.65;;
69835;SDS011;57132;51.972;4.450;2023-03-23T08:22:25;11.65;;;4.68;;
69835;SDS011;57132;51.972;4.450;2023-03-23T08:24:51;20.50;;;5.30;;
69835;SDS011;57132;51.972;4.450;2023-03-23T08:27:17;22.92;;;6.10;;
69835;SDS011;57132;51.972;4.450;2023-03-23T08:29:44;22.45;;;5.38;;
69835;SDS011;57132;51.972;4.450;2023-03-23T08:32:10;20.30;;;5.07;;
69835;SDS011;57132;51.972;4.450;2023-03-23T08:34:36;24.98;;;4.20;;
69835;SDS011;57132;51.972;4.450;2023-03-23T08:37:02;15.40;;;4.30;;
69835;SDS011;57132;51.972;4.450;2023-03-23T08:39:28;23.35;;;3.78;;
69835;SDS011;57132;51.972;4.450;2023-03-23T08:41:55;19.00;;;4.18;;
69835;SDS011;57132;51.972;4.450;2023-03-23T08:44:20;23.10;;;3.70;;
69835;SDS011;57132;51.972;4.450;2023-03-23T08:46:46;19.95;;;4.35;;
69835;SDS011;57132;51.972;4.450;2023-03-23T08:49:11;22.50;;;4.75;;
69835;SDS011;57132;51.972;4.450;2023-03-23T08:51:36;20.73;;;3.90;;
69835;SDS011;57132;51.972;4.450;2023-03-23T08:54:02;27.50;;;4.35;;
69835;SDS011;57132;51.972;4.450;2023-03-23T08:56:28;19.38;;;3.85;;
69835;SDS011;57132;51.972;4.450;2023-03-23T08:58:53;18.08;;;3.35;;
69835;SDS011;57132;51.972;4.450;2023-03-23T09:01:19;18.35;;;3.05;;
69835;SDS011;57132;51.972;4.450;2023-03-23T09:03:45;22.10;;;3.28;;
69835;SDS011;57132;51.972;4.450;2023-03-23T09:06:10;17.73;;;2.65;;
69835;SDS011;57132;51.972;4.450;2023-03-23T09:08:37;17.27;;;2.75;;
69835;SDS011;57132;51.972;4.450;2023-03-23T09:11:04;13.00;;;3.33;;
69835;SDS011;57132;51.972;4.450;2023-03-23T09:13:32;17.98;;;3.72;;
69835;SDS011;57132;51.972;4.450;2023-03-23T09:15:58;20.50;;;3.47;;
69835;SDS011;57132;51.972;4.450;2023-03-23T09:18:23;17.77;;;3.45;;
69835;SDS011;57132;51.972;4.450;2023-03-23T09:20:50;14.52;;;3.70;;
69835;SDS011;57132;51.972;4.450;2023-03-23T09:23:16;25.23;;;4.45;;
69835;SDS011;57132;51.972;4.450;2023-03-23T09:25:42;22.13;;;4.25;;
69835;SDS011;57132;51.972;4.450;2023-03-23T09:28:07;25.25;;;3.92;;
69835;SDS011;57132;51.972;4.450;2023-03-23T09:30:34;17.08;;;3.28;;
69835;SDS011;57132;51.972;4.450;2023-03-23T09:33:01;22.00;;;4.00;;
69835;SDS011;57132;51.972;4.450;2023-03-23T09:35:28;22.27;;;4.07;;
69835;SDS011;57132;51.972;4.450;2023-03-23T09:37:54;19.52;;;3.80;;
69835;SDS011;57132;51.972;4.450;2023-03-23T09:40:22;27.48;;;3.78;;
69835;SDS011;57132;51.972;4.450;2023-03-23T09:43:03;20.77;;;3.33;;
69835;SDS011;57132;51.972;4.450;2023-03-23T09:45:51;21.50;;;4.22;;
69835;SDS011;57132;51.972;4.450;2023-03-23T09:48:42;16.08;;;3.08;;
69835;SDS011;57132;51.972;4.450;2023-03-23T09:56:48;14.90;;;2.83;;
69835;SDS011;57132;51.972;4.450;2023-03-23T10:04:44;21.25;;;3.92;;
69835;SDS011;57132;51.972;4.450;2023-03-23T10:07:16;23.27;;;3.67;;
69835;SDS011;57132;51.972;4.450;2023-03-23T10:09:44;18.40;;;3.53;;
69835;SDS011;57132;51.972;4.450;2023-03-23T10:14:55;16.98;;;3.15;;
69835;SDS011;57132;51.972;4.450;2023-03-23T10:17:31;17.70;;;3.72;;
69835;SDS011;57132;51.972;4.450;2023-03-23T10:22:42;22.33;;;3.80;;
69835;SDS011;57132;51.972;4.450;2023-03-23T10:25:18;29.77;;;4.53;;
69835;SDS011;57132;51.972;4.450;2023-03-23T10:28:08;14.50;;;3.58;;
69835;SDS011;57132;51.972;4.450;2023-03-23T10:30:44;17.02;;;2.97;;
69835;SDS011;57132;51.972;4.450;2023-03-23T10:36:10;15.63;;;3.58;;
69835;SDS011;57132;51.972;4.450;2023-03-23T10:38:43;19.27;;;3.72;;
69835;SDS011;57132;51.972;4.450;2023-03-23T10:41:13;26.33;;;4.28;;
69835;SDS011;57132;51.972;4.450;2023-03-23T10:43:41;22.80;;;4.57;;
69835;SDS011;57132;51.972;4.450;2023-03-23T10:49:06;17.15;;;3.75;;
69835;SDS011;57132;51.972;4.450;2023-03-23T10:51:37;17.42;;;3.85;;
69835;SDS011;57132;51.972;4.450;2023-03-23T10:54:06;20.80;;;3.75;;
69835;SDS011;57132;51.972;4.450;2023-03-23T10:56:43;19.55;;;2.92;;
69835;SDS011;57132;51.972;4.450;2023-03-23T10:59:20;16.45;;;3.60;;
69835;SDS011;57132;51.972;4.450;2023-03-23T11:01:52;22.13;;;3.92;;
69835;SDS011;57132;51.972;4.450;2023-03-23T11:04:20;22.17;;;3.97;;
69835;SDS011;57132;51.972;4.450;2023-03-23T11:06:48;16.02;;;3.38;;
69835;SDS011;57132;51.972;4.450;2023-03-23T11:09:18;19.45;;;3.83;;
69835;SDS011;57132;51.972;4.450;2023-03-23T11:11:52;20.73;;;3.67;;
69835;SDS011;57132;51.972;4.450;2023-03-23T11:14:27;11.55;;;2.78;;
69835;SDS011;57132;51.972;4.450;2023-03-23T11:16:55;11.85;;;2.92;;
69835;SDS011;57132;51.972;4.450;2023-03-23T11:19:24;19.42;;;3.35;;
69835;SDS011;57132;51.972;4.450;2023-03-23T11:21:52;18.40;;;3.25;;
69835;SDS011;57132;51.972;4.450;2023-03-23T11:24:21;14.52;;;3.30;;
69835;SDS011;57132;51.972;4.450;2023-03-23T11:26:48;16.63;;;3.58;;
69835;SDS011;57132;51.972;4.450;2023-03-23T11:29:22;19.77;;;3.50;;
69835;SDS011;57132;51.972;4.450;2023-03-23T11:31:51;16.45;;;2.97;;
69835;SDS011;57132;51.972;4.450;2023-03-23T11:34:33;19.80;;;3.25;;
69835;SDS011;57132;51.972;4.450;2023-03-23T11:37:02;16.08;;;2.45;;
69835;SDS011;57132;51.972;4.450;2023-03-23T11:39:32;15.40;;;3.03;;
69835;SDS011;57132;51.972;4.450;2023-03-23T11:42:00;14.32;;;3.05;;
69835;SDS011;57132;51.972;4.450;2023-03-23T11:44:40;18.67;;;3.20;;
69835;SDS011;57132;51.972;4.450;2023-03-23T11:50:17;13.75;;;2.80;;
69835;SDS011;57132;51.972;4.450;2023-03-23T11:53:00;14.68;;;2.42;;
69835;SDS011;57132;51.972;4.450;2023-03-23T11:58:16;10.45;;;2.40;;
69835;SDS011;57132;51.972;4.450;2023-03-23T12:00:46;13.23;;;3.25;;
69835;SDS011;57132;51.972;4.450;2023-03-23T12:03:18;12.30;;;3.05;;
69835;SDS011;57132;51.972;4.450;2023-03-23T12:05:45;10.30;;;2.97;;
69835;SDS011;57132;51.972;4.450;2023-03-23T12:25:08;17.58;;;3.63;;
69835;SDS011;57132;51.972;4.450;2023-03-23T12:27:37;14.13;;;3.60;;
69835;SDS011;57132;51.972;4.450;2023-03-23T12:33:08;14.75;;;3.38;;
69835;SDS011;57132;51.972;4.450;2023-03-23T12:38:29;13.52;;;2.92;;
69835;SDS011;57132;51.972;4.450;2023-03-23T12:54:19;13.85;;;2.80;;
69835;SDS011;57132;51.972;4.450;2023-03-23T13:02:10;8.90;;;3.07;;
69835;SDS011;57132;51.972;4.450;2023-03-23T13:04:45;14.85;;;4.28;;
69835;SDS011;57132;51.972;4.450;2023-03-23T13:07:21;9.27;;;3.15;;
69835;SDS011;57132;51.972;4.450;2023-03-23T13:12:17;20.35;;;3.95;;
69835;SDS011;57132;51.972;4.450;2023-03-23T13:19:59;16.30;;;3.17;;
69835;SDS011;57132;51.972;4.450;2023-03-23T13:22:52;13.00;;;2.85;;
69835;SDS011;57132;51.972;4.450;2023-03-23T13:28:13;12.70;;;2.53;;
69835;SDS011;57132;51.972;4.450;2023-03-23T13:30:40;15.35;;;3.95;;
69835;SDS011;57132;51.972;4.450;2023-03-23T13:33:06;16.88;;;3.50;;
69835;SDS011;57132;51.972;4.450;2023-03-23T13:35:38;11.85;;;2.65;;
69835;SDS011;57132;51.972;4.450;2023-03-23T13:38:25;11.85;;;2.97;;
69835;SDS011;57132;51.972;4.450;2023-03-23T13:40:53;17.60;;;3.70;;
69835;SDS011;57132;51.972;4.450;2023-03-23T13:43:31;18.48;;;4.13;;
69835;SDS011;57132;51.972;4.450;2023-03-23T13:48:49;14.07;;;2.90;;
69835;SDS011;57132;51.972;4.450;2023-03-23T13:51:34;11.25;;;2.95;;
69835;SDS011;57132;51.972;4.450;2023-03-23T13:54:46;11.50;;;2.72;;
69835;SDS011;57132;51.972;4.450;2023-03-23T13:57:24;12.98;;;3.30;;
69835;SDS011;57132;51.972;4.450;2023-03-23T13:59:58;18.50;;;3.75;;
69835;SDS011;57132;51.972;4.450;2023-03-23T14:02:38;14.43;;;2.88;;
69835;SDS011;57132;51.972;4.450;2023-03-23T14:05:49;17.53;;;3.57;;
69835;SDS011;57132;51.972;4.450;2023-03-23T14:10:24;13.88;;;3.50;;
69835;SDS011;57132;51.972;4.450;2023-03-23T14:12:57;15.00;;;4.22;;
69835;SDS011;57132;51.972;4.450;2023-03-23T14:15:28;15.77;;;3.97;;
69835;SDS011;57132;51.972;4.450;2023-03-23T14:17:55;15.32;;;3.03;;
69835;SDS011;57132;51.972;4.450;2023-03-23T14:20:25;17.98;;;4.18;;
69835;SDS011;57132;51.972;4.450;2023-03-23T14:22:57;12.77;;;3.13;;
69835;SDS011;57132;51.972;4.450;2023-03-23T14:25:25;14.63;;;2.88;;
69835;SDS011;57132;51.972;4.450;2023-03-23T14:27:53;15.52;;;3.80;;
69835;SDS011;57132;51.972;4.450;2023-03-23T14:30:19;15.02;;;2.95;;
69835;SDS011;57132;51.972;4.450;2023-03-23T14:32:47;17.85;;;3.15;;
69835;SDS011;57132;51.972;4.450;2023-03-23T14:35:17;14.20;;;2.90;;
69835;SDS011;57132;51.972;4.450;2023-03-23T14:37:45;21.83;;;3.72;;
69835;SDS011;57132;51.972;4.450;2023-03-23T14:40:12;13.77;;;2.70;;
69835;SDS011;57132;51.972;4.450;2023-03-23T14:42:41;14.30;;;2.70;;
69835;SDS011;57132;51.972;4.450;2023-03-23T14:45:10;13.30;;;2.92;;
69835;SDS011;57132;51.972;4.450;2023-03-23T14:47:42;11.45;;;2.22;;
69835;SDS011;57132;51.972;4.450;2023-03-23T14:50:25;10.70;;;2.55;;
69835;SDS011;57132;51.972;4.450;2023-03-23T14:52:51;12.32;;;3.08;;
69835;SDS011;57132;51.972;4.450;2023-03-23T14:55:20;12.30;;;2.60;;
69835;SDS011;57132;51.972;4.450;2023-03-23T14:57:48;17.25;;;2.85;;
69835;SDS011;57132;51.972;4.450;2023-03-23T15:02:47;14.23;;;2.63;;
69835;SDS011;57132;51.972;4.450;2023-03-23T15:05:19;11.18;;;3.13;;
69835;SDS011;57132;51.972;4.450;2023-03-23T15:07:53;19.23;;;3.00;;
69835;SDS011;57132;51.972;4.450;2023-03-23T15:10:23;18.83;;;3.78;;
69835;SDS011;57132;51.972;4.450;2023-03-23T15:12:49;12.20;;;3.60;;
69835;SDS011;57132;51.972;4.450;2023-03-23T15:15:27;17.80;;;3.30;;
69835;SDS011;57132;51.972;4.450;2023-03-23T15:17:55;16.33;;;3.08;;
69835;SDS011;57132;51.972;4.450;2023-03-23T15:20:29;18.55;;;3.17;;
69835;SDS011;57132;51.972;4.450;2023-03-23T15:22:56;12.73;;;3.03;;
69835;SDS011;57132;51.972;4.450;2023-03-23T15:25:32;13.27;;;2.92;;
69835;SDS011;57132;51.972;4.450;2023-03-23T15:28:18;20.27;;;3.05;;
69835;SDS011;57132;51.972;4.450;2023-03-23T15:30:48;13.55;;;2.92;;
69835;SDS011;57132;51.972;4.450;2023-03-23T15:33:16;17.70;;;3.25;;
69835;SDS011;57132;51.972;4.450;2023-03-23T15:35:49;17.83;;;3.75;;
69835;SDS011;57132;51.972;4.450;2023-03-23T15:38:32;17.25;;;2.67;;
69835;SDS011;57132;51.972;4.450;2023-03-23T15:41:00;12.95;;;3.00;;
69835;SDS011;57132;51.972;4.450;2023-03-23T15:43:30;15.75;;;3.13;;
69835;SDS011;57132;51.972;4.450;2023-03-23T15:46:04;17.80;;;4.45;;
69835;SDS011;57132;51.972;4.450;2023-03-23T15:51:28;10.95;;;2.78;;
69835;SDS011;57132;51.972;4.450;2023-03-23T15:53:56;12.85;;;2.95;;
69835;SDS011;57132;51.972;4.450;2023-03-23T15:56:22;20.55;;;4.05;;
69835;SDS011;57132;51.972;4.450;2023-03-23T15:58:49;10.18;;;2.78;;
69835;SDS011;57132;51.972;4.450;2023-03-23T16:03:51;15.38;;;3.20;;
69835;SDS011;57132;51.972;4.450;2023-03-23T16:06:23;16.52;;;3.35;;
69835;SDS011;57132;51.972;4.450;2023-03-23T16:08:54;17.70;;;3.45;;
69835;SDS011;57132;51.972;4.450;2023-03-23T16:11:20;16.17;;;3.45;;
69835;SDS011;57132;51.972;4.450;2023-03-23T16:13:46;17.63;;;3.63;;
69835;SDS011;57132;51.972;4.450;2023-03-23T16:21:11;16.55;;;3.60;;
69835;SDS011;57132;51.972;4.450;2023-03-23T16:23:37;22.02;;;3.78;;
69835;SDS011;57132;51.972;4.450;2023-03-23T16:26:04;20.25;;;3.55;;
69835;SDS011;57132;51.972;4.450;2023-03-23T16:28:30;18.63;;;3.75;;
69835;SDS011;57132;51.972;4.450;2023-03-23T16:30:55;17.02;;;3.38;;
69835;SDS011;57132;51.972;4.450;2023-03-23T16:33:21;20.98;;;4.25;;
69835;SDS011;57132;51.972;4.450;2023-03-23T16:35:46;18.35;;;3.10;;
69835;SDS011;57132;51.972;4.450;2023-03-23T16:38:12;17.52;;;3.40;;
69835;SDS011;57132;51.972;4.450;2023-03-23T16:40:40;21.27;;;3.22;;
69835;SDS011;57132;51.972;4.450;2023-03-23T16:43:06;17.08;;;3.53;;
69835;SDS011;57132;51.972;4.450;2023-03-23T16:45:31;21.42;;;4.03;;
69835;SDS011;57132;51.972;4.450;2023-03-23T16:47:57;19.42;;;4.05;;
69835;SDS011;57132;51.972;4.450;2023-03-23T16:50:25;21.63;;;3.55;;